Time;durP1;ratioP1;P1;durP2;ratioP2;P2;SDS_P1;SDS_P2;PMS_P1;PMS_P2;Temp;Humidity;BMP_temperature;BMP_pressure;BME280_temperature;BME280_humidity;BME280_pressure;Samples;Min_cycle;Max_cycle;Signal;HPM_P1;HPM_P2
2023/02/11 00:00:57;;;;;;;9.18;8.38;;;15.50;62.20;;;;;;5046038;28;20506;-5
2023/02/11 00:03:23;;;;;;;9.02;8.23;;;15.50;62.20;;;;;;5044772;28;20044;-5
2023/02/11 00:06:02;;;;;;;8.85;8.15;;;15.40;62.30;;;;;;5048227;28;20059;-15
2023/02/11 00:08:28;;;;;;;9.15;8.27;;;15.40;62.20;;;;;;5044717;28;20056;-5
2023/02/11 00:10:54;;;;;;;9.77;8.88;;;15.40;62.10;;;;;;5045303;28;20466;-9
2023/02/11 00:13:20;;;;;;;8.95;8.15;;;15.40;62.20;;;;;;5048352;28;20056;-13
2023/02/11 00:15:45;;;;;;;9.18;8.43;;;15.50;62.20;;;;;;5046122;28;20429;-5
2023/02/11 00:18:11;;;;;;;8.32;7.63;;;15.40;62.30;;;;;;5045524;28;20055;-5
2023/02/11 00:20:40;;;;;;;8.25;7.63;;;15.50;62.20;;;;;;5047823;28;20499;-5
2023/02/11 00:23:05;;;;;;;8.20;7.60;;;15.50;62.10;;;;;;5044932;28;20049;-5
2023/02/11 00:25:31;;;;;;;9.25;8.45;;;15.50;62.10;;;;;;5046307;28;20815;-11
2023/02/11 00:27:56;;;;;;;7.60;7.10;;;15.60;61.90;;;;;;5046783;28;20044;-8
2023/02/11 00:30:22;;;;;;;9.02;8.32;;;15.50;62.00;;;;;;5045806;28;20147;-6
2023/02/11 00:32:48;;;;;;;8.43;7.72;;;15.50;61.90;;;;;;5047244;28;20048;-8
2023/02/11 00:35:13;;;;;;;7.85;7.20;;;15.50;62.10;;;;;;5046319;28;20506;-5
2023/02/11 00:37:39;;;;;;;7.78;7.18;;;15.60;62.00;;;;;;5045914;28;20072;-10
2023/02/11 00:40:05;;;;;;;8.73;7.93;;;15.50;62.90;;;;;;5045703;28;20044;-6
2023/02/11 00:42:30;;;;;;;8.70;8.00;;;15.50;62.10;;;;;;5046783;28;20098;-5
2023/02/11 00:44:56;;;;;;;7.93;7.20;;;15.40;62.10;;;;;;5046973;28;20052;-5
2023/02/11 00:47:22;;;;;;;7.95;7.35;;;15.50;62.10;;;;;;5046472;28;20635;-15
2023/02/11 00:49:48;;;;;;;7.72;7.13;;;15.50;62.10;;;;;;5044406;28;20060;-6
2023/02/11 00:52:13;;;;;;;7.65;7.03;;;15.40;62.10;;;;;;5045145;28;20032;-6
2023/02/11 00:54:39;;;;;;;7.93;7.25;;;15.50;62.10;;;;;;5046193;28;20494;-5
2023/02/11 00:57:05;;;;;;;8.00;7.38;;;15.50;62.10;;;;;;5045371;28;20625;-7
2023/02/11 00:59:30;;;;;;;7.47;6.88;;;15.50;62.10;;;;;;5047260;28;20041;-6
2023/02/11 01:01:56;;;;;;;7.57;6.97;;;15.50;62.10;;;;;;5035916;28;20036;-6
2023/02/11 01:04:22;;;;;;;7.28;6.78;;;15.50;62.00;;;;;;5059826;28;20044;-6
2023/02/11 01:06:47;;;;;;;7.70;7.10;;;15.50;62.10;;;;;;5044685;28;20050;-5
2023/02/11 01:09:13;;;;;;;7.13;6.60;;;15.50;62.10;;;;;;5045122;28;20053;-5
2023/02/11 01:11:38;;;;;;;7.60;7.00;;;15.40;62.10;;;;;;5045836;28;20565;-5
2023/02/11 01:14:04;;;;;;;7.28;6.72;;;15.40;62.20;;;;;;5044729;28;21691;-5
2023/02/11 01:16:29;;;;;;;6.78;6.32;;;15.40;62.20;;;;;;5046993;28;20043;-8
2023/02/11 01:18:55;;;;;;;6.05;5.65;;;15.40;62.30;;;;;;5048464;28;20052;-6
2023/02/11 01:21:20;;;;;;;6.85;6.38;;;15.40;62.30;;;;;;5048672;28;20041;-5
2023/02/11 01:23:46;;;;;;;6.35;5.85;;;15.40;62.30;;;;;;5048423;28;20047;-15
2023/02/11 01:26:12;;;;;;;6.50;6.00;;;15.40;62.40;;;;;;5049433;28;20509;-6
2023/02/11 01:28:37;;;;;;;6.47;6.03;;;15.30;62.50;;;;;;5047498;28;20037;-5
2023/02/11 01:31:03;;;;;;;6.03;5.63;;;15.30;62.40;;;;;;5047462;28;20053;-5
2023/02/11 01:33:29;;;;;;;5.90;5.50;;;15.30;62.40;;;;;;5047036;28;20044;-5
2023/02/11 01:35:54;;;;;;;6.38;5.97;;;15.30;62.40;;;;;;5049169;28;20175;-6
2023/02/11 01:38:22;;;;;;;5.55;5.25;;;15.30;63.30;;;;;;5046452;28;20108;-6
2023/02/11 01:40:55;;;;;;;6.15;5.65;;;15.30;62.40;;;;;;5048401;28;20037;-6
2023/02/11 01:43:21;;;;;;;5.73;5.33;;;15.40;62.30;;;;;;5048517;28;20047;-6
2023/02/11 01:46:18;;;;;;;6.15;5.65;;;15.40;62.40;;;;;;5052686;28;20352;-5
2023/02/11 01:49:05;;;;;;;6.00;5.60;;;15.30;62.40;;;;;;5048335;28;20143;-5
2023/02/11 01:51:40;;;;;;;6.10;5.70;;;15.30;62.30;;;;;;5040435;28;20044;-6
2023/02/11 01:59:45;;;;;;;5.70;5.30;;;15.30;62.30;;;;;;5053277;28;20063;-5
2023/02/11 02:02:12;;;;;;;5.90;5.50;;;15.40;62.30;;;;;;5042673;28;20048;-10
2023/02/11 02:04:45;;;;;;;5.75;5.30;;;15.30;62.30;;;;;;5040326;28;20070;-5
2023/02/11 02:07:36;;;;;;;5.72;5.32;;;15.40;62.30;;;;;;5052374;28;20055;-5
2023/02/11 02:10:08;;;;;;;6.50;6.10;;;15.30;62.20;;;;;;5047197;28;20040;-5
2023/02/11 02:12:34;;;;;;;6.10;5.70;;;15.40;62.10;;;;;;5046969;28;20118;-5
2023/02/11 02:15:22;;;;;;;5.75;5.35;;;15.40;62.10;;;;;;5047768;28;20183;-5
2023/02/11 02:17:59;;;;;;;5.78;5.47;;;15.30;62.20;;;;;;5048124;28;20436;-21
2023/02/11 02:20:57;;;;;;;5.90;5.55;;;15.30;62.30;;;;;;5065046;28;20044;-6
2023/02/11 02:23:41;;;;;;;5.22;4.90;;;15.30;62.30;;;;;;5034638;28;20063;-11
2023/02/11 02:26:24;;;;;;;5.45;5.15;;;15.30;62.20;;;;;;5047480;28;20063;-6
2023/02/11 02:29:08;;;;;;;6.07;5.68;;;15.40;62.20;;;;;;5048036;28;20102;-8
2023/02/11 02:32:12;;;;;;;5.80;5.40;;;15.40;62.00;;;;;;5047695;28;20675;-6
2023/02/11 02:34:51;;;;;;;5.50;5.10;;;15.30;62.00;;;;;;5048151;28;20056;-7
2023/02/11 02:37:20;;;;;;;5.35;5.05;;;15.40;62.10;;;;;;5049790;28;20047;-11
2023/02/11 02:39:46;;;;;;;5.10;4.80;;;15.40;62.00;;;;;;5049206;28;20572;-6
2023/02/11 02:42:11;;;;;;;5.43;5.13;;;15.30;62.10;;;;;;5032652;28;20068;-9
2023/02/11 02:44:37;;;;;;;5.60;5.20;;;15.30;62.10;;;;;;5049185;28;20128;-12
2023/02/11 02:47:03;;;;;;;5.07;4.78;;;15.30;63.00;;;;;;5031821;28;20131;-7
2023/02/11 02:49:28;;;;;;;5.57;5.22;;;15.40;62.00;;;;;;5048400;28;20154;-14
2023/02/11 02:52:13;;;;;;;5.40;5.10;;;15.30;62.10;;;;;;5048210;28;21571;-15
2023/02/11 02:54:38;;;;;;;;;;;15.30;62.10;;;;;;5048545;28;20536;-10
2023/02/11 02:57:16;;;;;;;4.90;4.60;;;15.30;62.20;;;;;;5047303;28;19998;-19
2023/02/11 03:00:06;;;;;;;4.88;4.57;;;15.30;62.10;;;;;;5048926;28;20060;-5
2023/02/11 03:02:59;;;;;;;4.63;4.43;;;15.30;61.90;;;;;;5047869;28;20049;-11
2023/02/11 03:05:46;;;;;;;4.88;4.57;;;15.30;62.10;;;;;;5046762;28;20126;-6
2023/02/11 03:08:28;;;;;;;5.30;5.00;;;15.30;62.10;;;;;;5047710;28;20048;-18
2023/02/11 03:10:54;;;;;;;5.20;4.90;;;15.20;62.00;;;;;;5047157;28;20059;-12
2023/02/11 03:13:21;;;;;;;5.43;5.10;;;15.30;62.00;;;;;;5046937;28;20048;-13
2023/02/11 03:15:50;;;;;;;5.40;4.90;;;15.30;62.10;;;;;;5033658;28;20053;-7
2023/02/11 03:18:18;;;;;;;5.25;4.95;;;15.30;61.80;;;;;;5046698;28;20053;-8
2023/02/11 03:20:44;;;;;;;4.70;4.50;;;15.30;61.80;;;;;;5047001;28;20059;-7
2023/02/11 03:23:34;;;;;;;5.45;5.15;;;15.20;62.10;;;;;;5053014;28;20032;-7
2023/02/11 03:26:11;;;;;;;5.53;5.22;;;15.30;62.10;;;;;;5047325;28;20565;-21
2023/02/11 03:29:02;;;;;;;5.15;4.85;;;15.20;62.00;;;;;;5029782;28;20044;-15
2023/02/11 03:31:50;;;;;;;4.97;4.68;;;15.30;62.20;;;;;;5037888;28;20055;-5
2023/02/11 03:34:21;;;;;;;5.60;5.28;;;15.30;61.80;;;;;;5049687;28;20132;-23
2023/02/11 03:36:55;;;;;;;4.60;4.30;;;15.30;61.90;;;;;;5047305;28;20123;-5
2023/02/11 03:39:31;;;;;;;4.95;4.72;;;15.30;62.00;;;;;;5034103;28;20071;-11
2023/02/11 03:41:57;;;;;;;4.90;4.60;;;15.20;62.10;;;;;;5028103;28;20051;-6
2023/02/11 03:44:23;;;;;;;4.57;4.38;;;15.20;62.20;;;;;;5043890;28;20045;-5
2023/02/11 03:46:49;;;;;;;4.70;4.40;;;15.30;61.80;;;;;;5034683;28;20051;-14
2023/02/11 03:49:17;;;;;;;5.68;5.28;;;15.30;61.90;;;;;;5049822;28;20050;-4
2023/02/11 03:51:42;;;;;;;4.60;4.32;;;15.30;62.00;;;;;;5048776;28;20040;-5
2023/02/11 03:54:15;;;;;;;4.70;4.43;;;15.20;62.80;;;;;;5046813;28;20050;-5
2023/02/11 03:56:48;;;;;;;4.95;4.68;;;15.20;62.00;;;;;;5055597;28;20059;-5
2023/02/11 03:59:14;;;;;;;4.78;4.47;;;15.20;62.00;;;;;;5036224;28;20057;-19
2023/02/11 04:01:39;;;;;;;4.57;4.28;;;15.20;62.10;;;;;;5046284;28;20047;-18
2023/02/11 04:04:05;;;;;;;3.95;3.75;;;15.20;62.10;;;;;;5047294;28;20123;-14
2023/02/11 04:06:30;;;;;;;4.40;4.10;;;15.20;62.10;;;;;;5048419;28;20040;-11
2023/02/11 04:08:56;;;;;;;4.38;4.07;;;15.20;62.00;;;;;;5048252;28;20147;-11
2023/02/11 04:11:21;;;;;;;5.13;4.78;;;15.20;62.00;;;;;;5049047;28;20047;-5
2023/02/11 04:13:47;;;;;;;4.68;4.38;;;15.20;62.00;;;;;;5046220;28;20514;-5
2023/02/11 04:16:13;;;;;;;4.75;4.45;;;15.20;62.00;;;;;;5048266;28;20032;-7
2023/02/11 04:18:38;;;;;;;4.68;4.38;;;15.20;62.30;;;;;;5045369;28;20136;-4
2023/02/11 04:21:04;;;;;;;5.07;4.78;;;15.20;61.80;;;;;;5048704;28;20154;-6
2023/02/11 04:23:29;;;;;;;4.68;4.38;;;15.20;62.00;;;;;;5046818;28;20517;-25
2023/02/11 04:25:55;;;;;;;4.30;4.10;;;15.20;62.00;;;;;;5047582;28;20117;-5
2023/02/11 04:28:20;;;;;;;4.07;3.88;;;15.20;61.90;;;;;;5046428;28;20044;-7
2023/02/11 04:30:48;;;;;;;4.60;4.35;;;15.20;62.00;;;;;;5046756;28;20064;-10
2023/02/11 04:33:14;;;;;;;4.72;4.50;;;15.20;62.00;;;;;;5047295;28;20048;-12
2023/02/11 04:35:39;;;;;;;4.70;4.40;;;15.20;61.90;;;;;;5046718;28;20446;-9
2023/02/11 04:38:05;;;;;;;4.50;4.20;;;15.10;62.00;;;;;;5045739;28;20049;-7
2023/02/11 04:40:30;;;;;;;5.10;4.80;;;15.20;61.90;;;;;;5047084;28;20036;-15
2023/02/11 04:42:56;;;;;;;4.50;4.30;;;15.20;61.90;;;;;;5047974;28;20065;-5
2023/02/11 04:45:22;;;;;;;4.57;4.28;;;15.20;62.00;;;;;;5046651;28;20079;-23
2023/02/11 04:47:47;;;;;;;4.03;3.83;;;15.20;61.80;;;;;;5047660;28;20048;-18
2023/02/11 04:50:13;;;;;;;4.00;3.80;;;15.10;61.90;;;;;;5052388;28;20055;-5
2023/02/11 04:52:38;;;;;;;3.97;3.70;;;15.10;62.00;;;;;;5049269;28;20049;-16
2023/02/11 04:55:04;;;;;;;4.05;3.85;;;15.20;62.70;;;;;;5051840;28;20482;-6
2023/02/11 04:57:30;;;;;;;3.53;3.33;;;15.20;61.80;;;;;;5050159;28;20037;-10
2023/02/11 04:59:55;;;;;;;4.00;3.80;;;15.20;61.90;;;;;;5051751;28;20041;-11
2023/02/11 05:02:21;;;;;;;4.72;4.43;;;15.20;61.80;;;;;;5049943;28;20048;-6
2023/02/11 05:04:47;;;;;;;3.58;3.38;;;15.10;61.90;;;;;;5051046;28;20129;-8
2023/02/11 05:07:12;;;;;;;3.83;3.63;;;15.10;61.90;;;;;;5050706;28;20057;-12
2023/02/11 05:09:38;;;;;;;3.97;3.78;;;15.20;61.80;;;;;;5048906;28;20041;-7
2023/02/11 05:12:03;;;;;;;3.78;3.58;;;15.20;61.80;;;;;;5049358;28;20028;-16
2023/02/11 05:14:29;;;;;;;3.58;3.38;;;15.10;61.80;;;;;;5047081;28;20036;-12
2023/02/11 05:16:54;;;;;;;4.38;4.13;;;15.10;61.90;;;;;;5046868;28;20523;-8
2023/02/11 05:19:20;;;;;;;3.58;3.38;;;15.10;61.90;;;;;;5048072;28;20037;-11
2023/02/11 05:21:46;;;;;;;3.85;3.65;;;15.10;61.90;;;;;;5047104;28;20040;-5
2023/02/11 05:24:11;;;;;;;3.83;3.63;;;15.10;61.90;;;;;;5047229;28;20106;-14
2023/02/11 05:26:37;;;;;;;4.10;3.90;;;15.10;61.90;;;;;;5048605;28;20045;-19
2023/02/11 05:29:02;;;;;;;3.65;3.45;;;15.10;61.90;;;;;;5047943;28;20114;-13
2023/02/11 05:31:28;;;;;;;3.53;3.33;;;15.10;61.80;;;;;;5039744;28;20132;-17
2023/02/11 05:33:54;;;;;;;3.53;3.33;;;15.10;61.90;;;;;;5029823;28;20048;-34
2023/02/11 05:36:20;;;;;;;3.65;3.45;;;15.10;61.80;;;;;;5029333;28;20055;-5
2023/02/11 05:38:45;;;;;;;3.92;3.72;;;15.10;61.80;;;;;;5040921;28;20075;-12
2023/02/11 05:41:11;;;;;;;3.63;3.42;;;15.10;61.90;;;;;;5046416;28;20413;-21
2023/02/11 05:43:36;;;;;;;3.67;3.47;;;15.20;61.70;;;;;;5048249;28;20059;-22
2023/02/11 05:46:03;;;;;;;3.47;3.28;;;15.10;61.70;;;;;;5048497;28;20056;-11
2023/02/11 05:48:28;;;;;;;3.20;3.10;;;15.10;61.70;;;;;;5048586;28;20041;-18
2023/02/11 05:50:54;;;;;;;3.70;3.50;;;15.10;61.80;;;;;;5048119;28;20079;-23
2023/02/11 05:53:19;;;;;;;3.85;3.65;;;15.10;62.00;;;;;;5048903;28;21908;-12
2023/02/11 05:55:45;;;;;;;3.60;3.40;;;15.10;61.80;;;;;;5048742;28;20060;-31
2023/02/11 05:58:11;;;;;;;3.58;3.38;;;15.10;61.70;;;;;;5047425;28;20075;-12
2023/02/11 06:00:36;;;;;;;3.75;3.55;;;15.10;61.50;;;;;;5047650;28;20513;-5
2023/02/11 06:03:03;;;;;;;3.05;2.95;;;15.10;62.50;;;;;;5046339;28;20044;-15
2023/02/11 06:05:29;;;;;;;3.22;3.03;;;15.10;61.80;;;;;;5047688;28;20509;-11
2023/02/11 06:07:54;;;;;;;3.15;3.03;;;15.00;61.70;;;;;;5047847;28;20044;-14
2023/02/11 06:10:20;;;;;;;3.88;3.67;;;15.00;61.80;;;;;;5047875;28;20060;-8
2023/02/11 06:12:45;;;;;;;3.78;3.58;;;15.10;61.60;;;;;;5046820;28;20351;-6
2023/02/11 06:15:11;;;;;;;3.70;3.50;;;15.10;61.70;;;;;;5047766;28;20053;-7
2023/02/11 06:17:36;;;;;;;3.40;3.30;;;15.00;61.70;;;;;;5047883;28;20418;-22
2023/02/11 06:20:04;;;;;;;3.22;3.13;;;15.10;61.70;;;;;;5046991;28;20040;-8
2023/02/11 06:22:30;;;;;;;3.50;3.30;;;15.00;61.70;;;;;;5047446;28;20032;-17
2023/02/11 06:24:55;;;;;;;3.00;2.90;;;15.00;61.70;;;;;;5047386;28;20109;-11
2023/02/11 06:27:21;;;;;;;3.53;3.33;;;15.10;61.70;;;;;;5049278;28;20051;-9
2023/02/11 06:29:46;;;;;;;3.80;3.60;;;15.10;61.60;;;;;;5047572;28;20457;-10
2023/02/11 06:32:12;;;;;;;3.83;3.63;;;15.10;62.40;;;;;;5047540;28;20056;-6
2023/02/11 06:34:38;;;;;;;3.10;3.00;;;15.00;61.60;;;;;;5046858;28;20090;-6
2023/02/11 06:37:03;;;;;;;3.78;3.58;;;15.00;61.70;;;;;;5046912;28;20052;-8
2023/02/11 06:39:29;;;;;;;3.70;3.50;;;15.00;61.70;;;;;;5048704;28;20052;-10
2023/02/11 06:41:54;;;;;;;3.50;3.30;;;15.00;61.60;;;;;;5048990;28;20051;-29
2023/02/11 06:44:20;;;;;;;3.83;3.63;;;15.10;61.50;;;;;;5047343;28;20393;-9
2023/02/11 06:46:46;;;;;;;3.63;3.42;;;15.00;61.60;;;;;;5047677;28;20064;-21
2023/02/11 06:49:12;;;;;;;3.50;3.30;;;15.00;61.70;;;;;;5048392;28;20049;-5
2023/02/11 06:51:37;;;;;;;3.65;3.45;;;15.00;61.80;;;;;;5047396;28;20143;-7
2023/02/11 06:54:04;;;;;;;2.97;2.83;;;15.00;61.70;;;;;;5045802;28;20097;-7
2023/02/11 06:56:29;;;;;;;3.50;3.30;;;15.00;61.70;;;;;;5046662;28;20134;-5
2023/02/11 06:58:55;;;;;;;3.70;3.50;;;14.90;61.60;;;;;;5047709;28;20518;-14
2023/02/11 07:01:21;;;;;;;3.35;3.15;;;15.00;61.70;;;;;;5046924;28;20471;-13
2023/02/11 07:03:47;;;;;;;3.25;3.15;;;15.00;61.70;;;;;;5043839;28;20045;-19
2023/02/11 07:06:14;;;;;;;3.20;3.10;;;14.90;61.60;;;;;;5048132;28;20334;-5
2023/02/11 07:08:41;;;;;;;3.10;3.00;;;14.90;61.60;;;;;;5048564;28;20143;-11
2023/02/11 07:11:23;;;;;;;3.50;3.33;;;14.90;61.60;;;;;;5046741;28;20518;-17
2023/02/11 07:13:49;;;;;;;3.58;3.38;;;15.00;61.50;;;;;;5046514;28;20059;-8
2023/02/11 07:16:15;;;;;;;3.42;3.22;;;15.00;61.50;;;;;;5046636;28;20048;-22
2023/02/11 07:18:40;;;;;;;3.15;2.95;;;14.90;61.50;;;;;;5047835;28;20098;-5
2023/02/11 07:21:07;;;;;;;2.80;2.70;;;15.00;61.40;;;;;;5046452;28;20052;-17
2023/02/11 07:23:33;;;;;;;3.00;2.90;;;15.00;61.50;;;;;;5046708;28;20075;-5
2023/02/11 07:26:03;;;;;;;2.90;2.80;;;15.00;61.30;;;;;;5047655;28;20057;-20
2023/02/11 07:28:28;;;;;;;2.85;2.75;;;15.00;61.40;;;;;;5048144;28;20124;-12
2023/02/11 07:30:54;;;;;;;2.92;2.72;;;15.00;61.20;;;;;;5046770;28;20080;-31
2023/02/11 07:33:19;;;;;;;2.85;2.75;;;15.00;61.30;;;;;;5046736;28;20579;-16
2023/02/11 07:35:45;;;;;;;2.80;2.70;;;14.90;61.40;;;;;;5048218;28;20063;-23
2023/02/11 07:38:11;;;;;;;2.60;2.50;;;14.90;61.60;;;;;;5051693;28;20127;-27
2023/02/11 07:40:36;;;;;;;2.85;2.75;;;14.90;61.40;;;;;;5046312;28;20068;-16
2023/02/11 07:43:02;;;;;;;2.90;2.80;;;14.90;61.50;;;;;;5046482;28;20071;-20
2023/02/11 07:45:27;;;;;;;2.80;2.70;;;14.90;61.50;;;;;;5047212;28;20684;-17
2023/02/11 07:47:53;;;;;;;2.65;2.55;;;14.90;61.30;;;;;;5047839;28;20055;-17
2023/02/11 07:50:18;;;;;;;2.60;2.50;;;14.90;62.30;;;;;;5047904;28;20532;-6
2023/02/11 07:52:44;;;;;;;2.70;2.60;;;14.90;61.50;;;;;;5045350;28;20056;-28
2023/02/11 07:55:10;;;;;;;2.80;2.70;;;14.90;61.50;;;;;;5045895;28;20399;-14
2023/02/11 07:57:36;;;;;;;2.80;2.70;;;14.80;61.50;;;;;;5045910;28;20075;-11
2023/02/11 08:00:02;;;;;;;2.95;2.85;;;14.90;61.50;;;;;;5047285;28;20151;-19
2023/02/11 08:02:28;;;;;;;2.75;2.65;;;14.90;61.50;;;;;;5048021;28;20580;-7
2023/02/11 08:04:53;;;;;;;2.85;2.75;;;14.90;61.30;;;;;;5045991;28;20501;-21
2023/02/11 08:07:19;;;;;;;3.03;2.90;;;14.90;61.30;;;;;;5046190;28;20098;-52
2023/02/11 08:09:44;;;;;;;3.22;3.08;;;14.90;61.40;;;;;;5046481;28;20509;-42
2023/02/11 08:12:10;;;;;;;3.25;3.15;;;14.90;61.50;;;;;;5045985;28;20044;-51
2023/02/11 08:14:36;;;;;;;2.55;2.45;;;14.90;61.50;;;;;;5048100;28;20114;-49
2023/02/11 08:17:02;;;;;;;3.15;3.00;;;14.90;61.50;;;;;;5048156;28;20055;-45
2023/02/11 08:19:27;;;;;;;2.90;2.80;;;14.90;62.00;;;;;;5040771;28;20041;-46
2023/02/11 08:21:56;;;;;;;2.67;2.58;;;14.90;62.00;;;;;;5036563;28;20076;-48
2023/02/11 08:24:22;;;;;;;2.63;2.53;;;14.90;62.30;;;;;;5046099;28;20060;-50
2023/02/11 08:26:47;;;;;;;2.63;2.53;;;14.90;62.70;;;;;;5047462;28;20447;-50
2023/02/11 08:29:13;;;;;;;3.75;3.13;;;14.90;62.80;;;;;;5046055;28;20044;-50
2023/02/11 08:31:40;;;;;;;2.95;2.85;;;14.70;63.80;;;;;;5049980;28;20049;-51
2023/02/11 08:34:06;;;;;;;2.90;2.80;;;14.70;64.20;;;;;;5046649;28;20150;-44
2023/02/11 08:36:33;;;;;;;2.70;2.60;;;14.60;64.40;;;;;;5047917;28;20651;-45
2023/02/11 08:39:01;;;;;;;3.10;2.90;;;14.60;64.80;;;;;;5046323;28;20164;-48
2023/02/11 08:41:27;;;;;;;3.03;2.83;;;14.60;65.30;;;;;;5048777;28;20567;-50
2023/02/11 08:43:53;;;;;;;2.83;2.63;;;14.70;64.90;;;;;;5046236;28;20052;-50
2023/02/11 08:46:19;;;;;;;2.63;2.53;;;14.70;65.10;;;;;;5046118;28;20426;-49
2023/02/11 08:48:44;;;;;;;2.47;2.38;;;14.80;64.60;;;;;;5046001;28;20129;-39
2023/02/11 08:51:18;;;;;;;3.35;3.13;;;14.80;64.60;;;;;;5045484;28;22050;-30
2023/02/11 08:53:44;;;;;;;2.55;2.45;;;14.70;64.70;;;;;;5059755;28;20049;-51
2023/02/11 08:56:10;;;;;;;3.28;2.97;;;14.70;65.10;;;;;;5047225;28;20036;-51
2023/02/11 08:58:36;;;;;;;2.58;2.47;;;14.60;65.40;;;;;;5050165;28;20060;-47
2023/02/11 09:01:07;;;;;;;2.90;2.78;;;14.60;65.50;;;;;;5046515;28;20490;-50
2023/02/11 09:03:32;;;;;;;3.42;2.45;;;14.60;65.50;;;;;;5045790;28;20056;-52
2023/02/11 09:05:58;;;;;;;6.53;2.70;;;14.60;65.30;;;;;;5047432;28;20449;-51
2023/02/11 09:08:24;;;;;;;2.97;2.30;;;14.70;65.10;;;;;;5047082;28;20037;-49
2023/02/11 09:10:49;;;;;;;2.80;2.70;;;14.60;65.30;;;;;;5044897;28;20059;-42
2023/02/11 09:13:15;;;;;;;3.95;2.63;;;14.60;65.20;;;;;;5046168;28;20517;-49
2023/02/11 09:15:44;;;;;;;2.65;2.55;;;14.60;66.00;;;;;;5045873;28;20507;-45
2023/02/11 09:18:09;;;;;;;3.03;2.92;;;14.60;65.30;;;;;;5048515;28;20060;-46
2023/02/11 09:20:35;;;;;;;2.88;2.67;;;14.60;65.50;;;;;;5048043;28;20772;-47
2023/02/11 09:23:01;;;;;;;3.28;3.08;;;14.60;65.70;;;;;;5046251;28;20113;-32
2023/02/11 09:25:26;;;;;;;3.20;3.00;;;14.60;64.90;;;;;;5045412;28;20045;-43
2023/02/11 09:27:52;;;;;;;2.97;2.88;;;14.70;64.80;;;;;;5046631;28;20072;-44
2023/02/11 09:30:18;;;;;;;3.22;3.10;;;14.60;65.10;;;;;;5047042;28;20052;-51
2023/02/11 09:32:44;;;;;;;3.20;3.03;;;14.60;65.20;;;;;;5047867;28;20414;-49
2023/02/11 09:35:09;;;;;;;3.13;3.03;;;14.60;65.10;;;;;;5049049;28;20517;-49
2023/02/11 09:37:35;;;;;;;2.60;2.50;;;14.60;65.00;;;;;;5051974;28;20079;-50
2023/02/11 09:40:00;;;;;;;3.10;2.80;;;14.70;64.80;;;;;;5050058;28;20064;-49
2023/02/11 09:42:46;;;;;;;2.95;2.85;;;14.70;64.60;;;;;;5050542;28;20029;-51
2023/02/11 09:45:18;;;;;;;3.10;2.92;;;14.60;64.80;;;;;;5054410;28;20126;-49
2023/02/11 09:48:13;;;;;;;2.80;2.60;;;14.60;65.00;;;;;;5049662;28;20528;-50
2023/02/11 09:50:39;;;;;;;;;;;14.60;65.10;;;;;;5051055;28;20056;-27
2023/02/11 09:53:21;;;;;;;2.63;2.53;;;14.60;65.10;;;;;;5052829;28;19916;-50
2023/02/11 09:55:49;;;;;;;2.45;2.35;;;14.60;65.00;;;;;;5047851;28;20075;-49
2023/02/11 09:58:16;;;;;;;2.42;2.33;;;14.60;64.80;;;;;;5049919;28;20128;-44
2023/02/11 10:01:02;;;;;;;2.72;2.63;;;14.60;64.70;;;;;;5038913;28;20041;-48
2023/02/11 10:03:47;;;;;;;2.67;2.58;;;14.60;64.70;;;;;;5050899;28;20048;-49
2023/02/11 10:06:27;;;;;;;3.15;2.95;;;14.60;64.60;;;;;;5053177;28;20037;-46
2023/02/11 10:09:11;;;;;;;2.67;2.58;;;14.60;64.70;;;;;;5050406;28;20036;-43
2023/02/11 10:11:39;;;;;;;3.20;3.00;;;14.60;64.60;;;;;;5050587;28;20518;-52
2023/02/11 10:14:14;;;;;;;2.60;2.50;;;14.60;64.70;;;;;;5049435;28;20547;-48
2023/02/11 10:17:04;;;;;;;2.33;2.22;;;14.60;64.60;;;;;;5053358;28;20040;-39
2023/02/11 10:19:49;;;;;;;2.53;2.42;;;14.60;64.60;;;;;;5050366;28;20397;-51
2023/02/11 10:22:28;;;;;;;2.70;2.60;;;14.70;64.40;;;;;;5036957;28;20151;-53
2023/02/11 10:24:59;;;;;;;2.75;2.65;;;14.80;63.90;;;;;;5051372;28;20171;-44
2023/02/11 10:27:30;;;;;;;2.80;2.60;;;14.80;63.90;;;;;;5049128;28;22345;-46
2023/02/11 10:30:01;;;;;;;2.80;2.70;;;14.80;64.00;;;;;;5061822;28;20140;-49
2023/02/11 10:32:39;;;;;;;2.80;2.70;;;14.90;63.80;;;;;;5051920;28;20040;-47
2023/02/11 10:35:14;;;;;;;3.08;2.97;;;14.90;63.80;;;;;;5049645;28;22365;-51
2023/02/11 10:37:40;;;;;;;2.95;2.85;;;14.90;63.50;;;;;;5051931;28;20045;-39
2023/02/11 10:40:11;;;;;;;2.47;2.38;;;15.00;63.60;;;;;;5047860;28;20044;-42
2023/02/11 10:42:37;;;;;;;2.50;2.40;;;15.10;63.40;;;;;;5048099;28;20048;-40
2023/02/11 10:45:05;;;;;;;2.47;2.38;;;15.00;63.20;;;;;;5048561;28;20040;-47
2023/02/11 10:47:36;;;;;;;3.28;3.08;;;15.10;63.10;;;;;;5048502;28;20047;-43
2023/02/11 10:50:21;;;;;;;2.58;2.38;;;15.10;63.10;;;;;;5047858;28;20106;-47
2023/02/11 10:52:46;;;;;;;2.70;2.50;;;15.10;63.00;;;;;;5045953;28;20128;-51
2023/02/11 10:55:12;;;;;;;2.15;2.05;;;15.10;63.10;;;;;;5049087;28;20421;-46
2023/02/11 10:58:01;;;;;;;2.75;2.65;;;15.20;62.80;;;;;;5049327;28;20052;-45
2023/02/11 11:00:35;;;;;;;2.30;2.20;;;15.30;62.80;;;;;;5049516;28;20778;-35
2023/02/11 11:03:02;;;;;;;2.60;2.50;;;15.30;62.30;;;;;;5050969;28;20040;-49
2023/02/11 11:05:33;;;;;;;2.70;2.50;;;15.40;62.30;;;;;;5038146;28;20071;-41
2023/02/11 11:08:00;;;;;;;2.90;2.70;;;15.40;62.30;;;;;;5049274;28;20600;-42
2023/02/11 11:10:42;;;;;;;2.30;2.20;;;15.40;62.40;;;;;;5047851;28;20079;-46
2023/02/11 11:13:22;;;;;;;2.65;2.55;;;15.30;62.40;;;;;;5048281;28;20048;-42
2023/02/11 11:16:05;;;;;;;2.78;2.65;;;15.30;62.40;;;;;;5048468;28;20530;-52
2023/02/11 11:18:30;;;;;;;2.45;2.35;;;15.40;62.50;;;;;;5047202;28;20055;-51
2023/02/11 11:21:01;;;;;;;2.50;2.40;;;15.30;62.50;;;;;;5048520;28;20037;-45
2023/02/11 11:23:27;;;;;;;3.28;3.08;;;15.40;62.40;;;;;;5047912;28;20098;-46
2023/02/11 11:26:04;;;;;;;2.65;2.45;;;15.40;62.40;;;;;;5047949;28;20397;-44
2023/02/11 11:28:32;;;;;;;2.45;2.35;;;15.40;62.40;;;;;;5048396;28;20124;-28
2023/02/11 11:30:57;;;;;;;2.35;2.25;;;15.40;62.30;;;;;;5036274;28;21011;-53
2023/02/11 11:33:32;;;;;;;2.35;2.25;;;15.50;62.40;;;;;;5047906;28;20040;-41
2023/02/11 11:36:04;;;;;;;2.40;2.30;;;15.50;62.30;;;;;;5049391;28;20070;-49
2023/02/11 11:38:29;;;;;;;2.20;2.10;;;15.50;62.30;;;;;;5050956;28;20131;-40
2023/02/11 11:41:14;;;;;;;2.53;2.42;;;15.50;62.30;;;;;;5051502;28;20040;-46
2023/02/11 11:43:39;;;;;;;2.83;2.72;;;15.50;62.30;;;;;;5047925;28;20044;-40
2023/02/11 11:46:06;;;;;;;2.80;2.70;;;15.50;62.30;;;;;;5049489;28;20060;-46
2023/02/11 11:48:38;;;;;;;2.95;2.85;;;15.50;62.20;;;;;;5051052;28;20045;-48
2023/02/11 11:51:05;;;;;;;3.13;3.03;;;15.50;62.20;;;;;;5046517;28;20036;-50
2023/02/11 11:53:40;;;;;;;3.15;3.00;;;15.60;62.20;;;;;;5049059;28;22235;-51
2023/02/11 11:56:09;;;;;;;2.50;2.40;;;15.60;62.20;;;;;;5045843;28;20044;-46
2023/02/11 11:58:34;;;;;;;2.72;2.63;;;15.60;62.20;;;;;;5049465;28;20131;-51
2023/02/11 12:01:14;;;;;;;2.70;2.60;;;15.60;62.30;;;;;;5063082;28;20048;-51
2023/02/11 12:03:49;;;;;;;2.80;2.70;;;15.60;62.20;;;;;;5048822;28;20057;-49
2023/02/11 12:06:34;;;;;;;2.67;2.58;;;15.60;62.20;;;;;;5046848;28;20055;-49
2023/02/11 12:09:03;;;;;;;2.40;2.30;;;15.60;62.20;;;;;;5052325;28;20032;-48
2023/02/11 12:11:37;;;;;;;2.58;2.47;;;15.70;62.20;;;;;;5047826;28;20546;-50
2023/02/11 12:14:27;;;;;;;2.55;2.45;;;15.70;62.20;;;;;;5046555;28;20076;-50
2023/02/11 12:17:04;;;;;;;2.58;2.47;;;15.70;62.10;;;;;;5036449;28;20524;-54
2023/02/11 12:19:53;;;;;;;2.90;2.80;;;15.70;62.20;;;;;;5047542;28;20112;-48
2023/02/11 12:22:44;;;;;;;2.38;2.28;;;15.70;62.10;;;;;;5046668;28;20059;-44
2023/02/11 12:25:21;;;;;;;2.58;2.47;;;15.70;62.10;;;;;;5046389;28;20033;-44
2023/02/11 12:27:52;;;;;;;2.30;2.20;;;15.70;62.10;;;;;;5047542;28;20044;-49
2023/02/11 12:30:20;;;;;;;2.47;2.38;;;15.70;62.10;;;;;;5038448;28;20386;-46
2023/02/11 12:32:51;;;;;;;2.55;2.45;;;15.70;62.10;;;;;;5049117;28;20071;-48
2023/02/11 12:35:22;;;;;;;2.67;2.47;;;15.60;62.20;;;;;;5048126;28;20048;-51
2023/02/11 12:38:05;;;;;;;2.35;2.25;;;15.60;62.30;;;;;;5050143;28;20514;-46
2023/02/11 12:40:45;;;;;;;2.63;2.53;;;15.60;62.30;;;;;;5048367;28;20073;-45
2023/02/11 12:43:25;;;;;;;2.50;2.40;;;15.60;62.40;;;;;;5047864;28;20048;-46
2023/02/11 12:45:54;;;;;;;2.45;2.35;;;15.60;62.50;;;;;;5055748;28;20586;-45
2023/02/11 12:48:31;;;;;;;2.45;2.35;;;15.50;62.50;;;;;;5047546;28;20464;-51
2023/02/11 12:51:27;;;;;;;2.53;2.42;;;15.50;62.50;;;;;;5047165;28;20056;-47
2023/02/11 12:54:05;;;;;;;2.28;2.17;;;15.60;62.30;;;;;;5045636;28;20103;-47
2023/02/11 12:56:50;;;;;;;2.70;2.60;;;15.60;62.40;;;;;;5048239;28;20051;-50
2023/02/11 12:59:30;;;;;;;;;;;15.60;62.30;;;;;;5046828;28;20049;-52
2023/02/11 13:01:56;;;;;;;2.10;2.00;;;15.60;62.30;;;;;;5044055;28;19924;-54
2023/02/11 13:04:32;;;;;;;2.22;2.13;;;15.60;62.20;;;;;;5050631;28;20053;-51
2023/02/11 13:07:10;;;;;;;2.17;2.08;;;15.60;63.00;;;;;;5037589;28;20037;-48
2023/02/11 13:09:42;;;;;;;2.25;2.15;;;15.70;63.10;;;;;;5063980;28;20060;-53